sensor_id;sensor_type;location;lat;lon;timestamp;pressure;altitude;pressure_sealevel;temperature;humidity
33265;BME280;31404;53.974;-1.086;2023-04-04T00:00:35;102971.61;;;5.86;66.72
33265;BME280;31404;53.974;-1.086;2023-04-04T00:05:35;102970.95;;;5.14;68.93
33265;BME280;31404;53.974;-1.086;2023-04-04T00:10:35;102976.81;;;5.83;66.50
33265;BME280;31404;53.974;-1.086;2023-04-04T00:15:35;102982.93;;;5.00;69.63
33265;BME280;31404;53.974;-1.086;2023-04-04T00:20:34;102986.62;;;5.83;66.58
33265;BME280;31404;53.974;-1.086;2023-04-04T00:25:34;102983.06;;;5.15;67.46
33265;BME280;31404;53.974;-1.086;2023-04-04T00:30:35;102984.28;;;6.28;66.35
33265;BME280;31404;53.974;-1.086;2023-04-04T00:45:35;102991.29;;;5.24;69.11
33265;BME280;31404;53.974;-1.086;2023-04-04T02:30:34;102923.76;;;3.26;78.14
33265;BME280;31404;53.974;-1.086;2023-04-04T02:40:35;102920.54;;;2.14;81.86
33265;BME280;31404;53.974;-1.086;2023-04-04T02:45:35;102913.67;;;1.18;87.26
33265;BME280;31404;53.974;-1.086;2023-04-04T02:50:35;102909.52;;;1.19;86.73
33265;BME280;31404;53.974;-1.086;2023-04-04T02:55:35;102908.46;;;1.81;82.02
33265;BME280;31404;53.974;-1.086;2023-04-04T03:00:35;102897.39;;;2.04;82.36
33265;BME280;31404;53.974;-1.086;2023-04-04T03:05:35;102907.77;;;1.78;81.10
33265;BME280;31404;53.974;-1.086;2023-04-04T03:10:36;102901.35;;;1.31;84.92
33265;BME280;31404;53.974;-1.086;2023-04-04T03:15:35;102891.67;;;2.07;80.32
33265;BME280;31404;53.974;-1.086;2023-04-04T03:20:36;102895.79;;;1.68;82.26
33265;BME280;31404;53.974;-1.086;2023-04-04T03:25:35;102897.49;;;1.47;84.34
33265;BME280;31404;53.974;-1.086;2023-04-04T03:30:35;102884.08;;;2.48;79.35
33265;BME280;31404;53.974;-1.086;2023-04-04T03:40:35;102879.13;;;3.67;76.06
33265;BME280;31404;53.974;-1.086;2023-04-04T03:45:35;102879.73;;;2.94;78.76
33265;BME280;31404;53.974;-1.086;2023-04-04T03:50:35;102878.20;;;2.15;80.92
33265;BME280;31404;53.974;-1.086;2023-04-04T03:55:35;102879.54;;;1.98;81.22
33265;BME280;31404;53.974;-1.086;2023-04-04T04:00:35;102874.13;;;2.20;79.86
33265;BME280;31404;53.974;-1.086;2023-04-04T04:05:36;102876.43;;;2.70;77.60
33265;BME280;31404;53.974;-1.086;2023-04-04T04:10:36;102875.07;;;1.82;81.33
33265;BME280;31404;53.974;-1.086;2023-04-04T04:55:34;102859.01;;;1.92;80.93
33265;BME280;31404;53.974;-1.086;2023-04-04T05:00:35;102855.26;;;3.06;77.55
33265;BME280;31404;53.974;-1.086;2023-04-04T05:05:35;102856.92;;;1.98;79.76
33265;BME280;31404;53.974;-1.086;2023-04-04T05:10:35;102863.56;;;1.42;81.49
33265;BME280;31404;53.974;-1.086;2023-04-04T05:15:35;102863.36;;;1.77;81.94
33265;BME280;31404;53.974;-1.086;2023-04-04T05:20:34;102858.35;;;2.84;75.92
33265;BME280;31404;53.974;-1.086;2023-04-04T05:25:37;102860.29;;;2.56;76.53
33265;BME280;31404;53.974;-1.086;2023-04-04T05:30:35;102869.59;;;1.81;80.65
33265;BME280;31404;53.974;-1.086;2023-04-04T05:35:36;102872.56;;;1.35;81.52
33265;BME280;31404;53.974;-1.086;2023-04-04T05:40:35;102866.18;;;2.35;77.18
33265;BME280;31404;53.974;-1.086;2023-04-04T07:10:40;102829.61;;;3.87;75.14
33265;BME280;31404;53.974;-1.086;2023-04-04T07:15:37;102829.88;;;5.02;70.90
33265;BME280;31404;53.974;-1.086;2023-04-04T07:20:37;102827.94;;;5.04;68.16
33265;BME280;31404;53.974;-1.086;2023-04-04T07:25:36;102826.84;;;5.50;67.99
33265;BME280;31404;53.974;-1.086;2023-04-04T07:30:40;102824.11;;;3.71;73.24
33265;BME280;31404;53.974;-1.086;2023-04-04T07:35:37;102823.47;;;4.83;69.02
33265;BME280;31404;53.974;-1.086;2023-04-04T07:40:38;102817.62;;;4.07;72.48
33265;BME280;31404;53.974;-1.086;2023-04-04T07:45:39;102825.23;;;4.95;68.60
33265;BME280;31404;53.974;-1.086;2023-04-04T07:50:37;102822.67;;;4.42;69.39
33265;BME280;31404;53.974;-1.086;2023-04-04T07:55:39;102823.10;;;4.18;71.75
33265;BME280;31404;53.974;-1.086;2023-04-04T08:00:35;102818.95;;;3.98;71.68
33265;BME280;31404;53.974;-1.086;2023-04-04T08:05:35;102818.59;;;4.22;71.12
33265;BME280;31404;53.974;-1.086;2023-04-04T08:10:37;102814.89;;;3.80;72.27
33265;BME280;31404;53.974;-1.086;2023-04-04T08:15:38;102808.81;;;5.75;67.02
33265;BME280;31404;53.974;-1.086;2023-04-04T08:20:35;102817.53;;;4.83;71.06
33265;BME280;31404;53.974;-1.086;2023-04-04T08:25:38;102815.58;;;4.42;71.65
33265;BME280;31404;53.974;-1.086;2023-04-04T08:30:35;102820.48;;;4.98;69.71
33265;BME280;31404;53.974;-1.086;2023-04-04T08:35:38;102820.70;;;4.59;71.40
33265;BME280;31404;53.974;-1.086;2023-04-04T08:40:35;102821.03;;;4.88;70.29
33265;BME280;31404;53.974;-1.086;2023-04-04T08:45:41;102817.65;;;4.81;70.33
33265;BME280;31404;53.974;-1.086;2023-04-04T08:50:40;102814.56;;;3.75;74.76
33265;BME280;31404;53.974;-1.086;2023-04-04T08:55:38;102813.35;;;3.78;74.61
33265;BME280;31404;53.974;-1.086;2023-04-04T09:00:38;102809.29;;;4.66;73.82
33265;BME280;31404;53.974;-1.086;2023-04-04T09:05:37;102799.86;;;4.97;72.41
33265;BME280;31404;53.974;-1.086;2023-04-04T09:10:36;102788.50;;;6.63;67.23
33265;BME280;31404;53.974;-1.086;2023-04-04T09:15:36;102788.72;;;5.97;68.19
33265;BME280;31404;53.974;-1.086;2023-04-04T09:20:37;102792.79;;;4.65;71.53
33265;BME280;31404;53.974;-1.086;2023-04-04T09:30:36;102785.10;;;5.89;69.74
33265;BME280;31404;53.974;-1.086;2023-04-04T09:35:38;102793.34;;;4.32;72.44
33265;BME280;31404;53.974;-1.086;2023-04-04T09:40:37;102785.57;;;4.81;70.38
33265;BME280;31404;53.974;-1.086;2023-04-04T09:45:40;102775.28;;;6.57;65.58
33265;BME280;31404;53.974;-1.086;2023-04-04T09:55:37;102770.04;;;6.02;65.54
33265;BME280;31404;53.974;-1.086;2023-04-04T10:00:40;102768.89;;;5.96;68.02
33265;BME280;31404;53.974;-1.086;2023-04-04T10:05:38;102767.59;;;6.10;66.19
33265;BME280;31404;53.974;-1.086;2023-04-04T10:15:35;102765.72;;;5.49;65.68
33265;BME280;31404;53.974;-1.086;2023-04-04T10:20:37;102760.08;;;5.71;66.73
33265;BME280;31404;53.974;-1.086;2023-04-04T10:25:39;102756.51;;;5.64;63.73
33265;BME280;31404;53.974;-1.086;2023-04-04T10:30:41;102752.28;;;6.61;63.50
33265;BME280;31404;53.974;-1.086;2023-04-04T10:35:40;102744.73;;;6.93;63.49
33265;BME280;31404;53.974;-1.086;2023-04-04T10:40:39;102749.63;;;6.34;63.10
33265;BME280;31404;53.974;-1.086;2023-04-04T10:45:35;102745.67;;;6.69;61.44
33265;BME280;31404;53.974;-1.086;2023-04-04T10:50:37;102747.49;;;6.81;61.84
33265;BME280;31404;53.974;-1.086;2023-04-04T10:55:36;102742.12;;;6.66;63.36
33265;BME280;31404;53.974;-1.086;2023-04-04T11:05:37;102733.80;;;8.70;59.51
33265;BME280;31404;53.974;-1.086;2023-04-04T11:10:37;102727.83;;;7.56;60.20
33265;BME280;31404;53.974;-1.086;2023-04-04T11:25:39;102698.15;;;8.92;57.64
33265;BME280;31404;53.974;-1.086;2023-04-04T11:30:40;102696.27;;;8.48;58.70
33265;BME280;31404;53.974;-1.086;2023-04-04T11:35:38;102695.75;;;7.33;60.24
33265;BME280;31404;53.974;-1.086;2023-04-04T11:40:38;102682.18;;;8.67;59.29
33265;BME280;31404;53.974;-1.086;2023-04-04T11:50:35;102670.16;;;8.13;60.00
33265;BME280;31404;53.974;-1.086;2023-04-04T12:00:37;102649.79;;;9.46;58.59
33265;BME280;31404;53.974;-1.086;2023-04-04T12:05:34;102642.93;;;8.60;60.23
33265;BME280;31404;53.974;-1.086;2023-04-04T12:10:39;102632.61;;;9.46;59.29
33265;BME280;31404;53.974;-1.086;2023-04-04T12:15:35;102627.80;;;8.87;59.75
33265;BME280;31404;53.974;-1.086;2023-04-04T12:20:37;102613.77;;;10.61;54.55
33265;BME280;31404;53.974;-1.086;2023-04-04T12:25:37;102608.01;;;10.36;54.54
33265;BME280;31404;53.974;-1.086;2023-04-04T12:30:35;102609.46;;;8.71;57.97
33265;BME280;31404;53.974;-1.086;2023-04-04T12:35:34;102603.11;;;9.09;56.90
33265;BME280;31404;53.974;-1.086;2023-04-04T12:40:36;102587.98;;;9.24;57.17
33265;BME280;31404;53.974;-1.086;2023-04-04T12:45:37;102578.12;;;10.12;54.33
33265;BME280;31404;53.974;-1.086;2023-04-04T12:55:37;102577.50;;;11.66;52.08
33265;BME280;31404;53.974;-1.086;2023-04-04T13:00:36;102569.55;;;10.65;51.92
33265;BME280;31404;53.974;-1.086;2023-04-04T13:05:35;102566.10;;;10.70;52.33
33265;BME280;31404;53.974;-1.086;2023-04-04T13:20:37;102545.56;;;10.02;53.78
33265;BME280;31404;53.974;-1.086;2023-04-04T13:25:38;102541.31;;;10.99;53.17
33265;BME280;31404;53.974;-1.086;2023-04-04T13:30:39;102542.05;;;11.00;52.39
33265;BME280;31404;53.974;-1.086;2023-04-04T13:35:40;102524.77;;;11.85;51.31
33265;BME280;31404;53.974;-1.086;2023-04-04T13:40:35;102519.52;;;12.00;50.83
33265;BME280;31404;53.974;-1.086;2023-04-04T13:45:35;102520.59;;;11.17;52.27
33265;BME280;31404;53.974;-1.086;2023-04-04T13:50:43;102512.57;;;11.12;51.74
33265;BME280;31404;53.974;-1.086;2023-04-04T13:55:39;102510.98;;;11.02;50.95
33265;BME280;31404;53.974;-1.086;2023-04-04T14:00:37;102499.77;;;11.70;49.36
33265;BME280;31404;53.974;-1.086;2023-04-04T14:05:34;102501.19;;;11.40;50.44
33265;BME280;31404;53.974;-1.086;2023-04-04T14:10:38;102486.03;;;12.39;49.02
33265;BME280;31404;53.974;-1.086;2023-04-04T14:15:38;102477.78;;;11.78;49.38
33265;BME280;31404;53.974;-1.086;2023-04-04T14:20:39;102466.86;;;13.16;48.26
33265;BME280;31404;53.974;-1.086;2023-04-04T14:25:36;102459.08;;;12.89;47.23
33265;BME280;31404;53.974;-1.086;2023-04-04T14:30:38;102456.68;;;13.28;45.94
33265;BME280;31404;53.974;-1.086;2023-04-04T14:35:37;102467.37;;;11.62;48.53
33265;BME280;31404;53.974;-1.086;2023-04-04T14:40:39;102458.66;;;11.25;49.23
33265;BME280;31404;53.974;-1.086;2023-04-04T14:45:39;102455.51;;;12.31;48.03
33265;BME280;31404;53.974;-1.086;2023-04-04T14:55:35;102439.17;;;12.62;47.64
33265;BME280;31404;53.974;-1.086;2023-04-04T15:00:40;102423.97;;;13.77;45.57
33265;BME280;31404;53.974;-1.086;2023-04-04T15:05:37;102425.62;;;12.62;46.35
33265;BME280;31404;53.974;-1.086;2023-04-04T15:10:34;102416.96;;;12.83;45.90
33265;BME280;31404;53.974;-1.086;2023-04-04T15:20:36;102388.73;;;13.05;45.72
33265;BME280;31404;53.974;-1.086;2023-04-04T15:25:39;102384.87;;;13.38;44.86
33265;BME280;31404;53.974;-1.086;2023-04-04T15:30:39;102381.36;;;12.27;47.02
33265;BME280;31404;53.974;-1.086;2023-04-04T15:35:38;102375.11;;;13.41;46.58
33265;BME280;31404;53.974;-1.086;2023-04-04T15:40:39;102369.52;;;13.02;46.29
33265;BME280;31404;53.974;-1.086;2023-04-04T15:45:36;102373.22;;;13.15;45.09
33265;BME280;31404;53.974;-1.086;2023-04-04T15:50:37;102366.22;;;13.55;44.78
33265;BME280;31404;53.974;-1.086;2023-04-04T15:55:41;102365.07;;;12.42;45.79
33265;BME280;31404;53.974;-1.086;2023-04-04T16:00:37;102352.55;;;12.51;46.17
33265;BME280;31404;53.974;-1.086;2023-04-04T16:30:48;102301.37;;;13.13;46.06
33265;BME280;31404;53.974;-1.086;2023-04-04T16:35:36;102296.36;;;12.33;47.31
33265;BME280;31404;53.974;-1.086;2023-04-04T16:40:36;102299.59;;;12.77;48.19
33265;BME280;31404;53.974;-1.086;2023-04-04T16:50:36;102297.09;;;13.81;48.23
33265;BME280;31404;53.974;-1.086;2023-04-04T17:00:39;102294.34;;;13.03;49.72
33265;BME280;31404;53.974;-1.086;2023-04-04T17:05:37;102302.62;;;11.50;52.89
33265;BME280;31404;53.974;-1.086;2023-04-04T17:10:35;102294.57;;;12.52;51.25
33265;BME280;31404;53.974;-1.086;2023-04-04T17:15:39;102290.06;;;12.10;51.20
33265;BME280;31404;53.974;-1.086;2023-04-04T17:20:38;102289.65;;;12.52;51.48
33265;BME280;31404;53.974;-1.086;2023-04-04T17:30:37;102271.65;;;12.76;50.69
33265;BME280;31404;53.974;-1.086;2023-04-04T17:35:36;102263.03;;;13.26;50.65
33265;BME280;31404;53.974;-1.086;2023-04-04T17:40:38;102251.73;;;13.09;51.98
33265;BME280;31404;53.974;-1.086;2023-04-04T17:45:37;102250.40;;;11.81;54.61
33265;BME280;31404;53.974;-1.086;2023-04-04T17:50:38;102243.81;;;12.45;53.29
33265;BME280;31404;53.974;-1.086;2023-04-04T17:55:38;102252.03;;;13.48;51.20
33265;BME280;31404;53.974;-1.086;2023-04-04T18:00:38;102256.76;;;12.93;52.08
33265;BME280;31404;53.974;-1.086;2023-04-04T18:05:38;102255.40;;;10.81;55.49
33265;BME280;31404;53.974;-1.086;2023-04-04T18:10:35;102255.18;;;11.61;54.71
33265;BME280;31404;53.974;-1.086;2023-04-04T18:15:35;102258.03;;;11.35;55.00
33265;BME280;31404;53.974;-1.086;2023-04-04T18:20:38;102257.63;;;9.94;58.11
33265;BME280;31404;53.974;-1.086;2023-04-04T18:25:37;102251.18;;;10.63;57.50
33265;BME280;31404;53.974;-1.086;2023-04-04T18:30:38;102253.66;;;11.37;56.36
33265;BME280;31404;53.974;-1.086;2023-04-04T18:35:38;102251.92;;;10.14;57.95
33265;BME280;31404;53.974;-1.086;2023-04-04T18:40:39;102252.32;;;10.17;58.65
33265;BME280;31404;53.974;-1.086;2023-04-04T18:45:38;102242.75;;;10.45;58.36
33265;BME280;31404;53.974;-1.086;2023-04-04T18:50:37;102231.17;;;10.65;58.03
33265;BME280;31404;53.974;-1.086;2023-04-04T18:55:38;102233.43;;;11.21;56.43
33265;BME280;31404;53.974;-1.086;2023-04-04T19:00:35;102238.85;;;11.39;56.59
33265;BME280;31404;53.974;-1.086;2023-04-04T19:05:37;102238.10;;;11.97;55.11
33265;BME280;31404;53.974;-1.086;2023-04-04T19:15:34;102240.94;;;10.85;57.32
33265;BME280;31404;53.974;-1.086;2023-04-04T19:20:36;102240.24;;;11.45;55.93
33265;BME280;31404;53.974;-1.086;2023-04-04T19:25:37;102246.09;;;9.48;59.63
33265;BME280;31404;53.974;-1.086;2023-04-04T19:50:35;102239.13;;;10.32;59.00
33265;BME280;31404;53.974;-1.086;2023-04-04T20:00:35;102235.69;;;10.88;56.96
33265;BME280;31404;53.974;-1.086;2023-04-04T20:10:38;102236.49;;;9.94;58.69
33265;BME280;31404;53.974;-1.086;2023-04-04T20:25:41;102239.82;;;11.50;55.70
33265;BME280;31404;53.974;-1.086;2023-04-04T20:30:35;102248.01;;;10.86;56.46
33265;BME280;31404;53.974;-1.086;2023-04-04T20:35:39;102238.70;;;11.02;56.23
33265;BME280;31404;53.974;-1.086;2023-04-04T20:40:38;102238.75;;;11.34;55.64
33265;BME280;31404;53.974;-1.086;2023-04-04T20:45:41;102236.62;;;11.52;55.55
33265;BME280;31404;53.974;-1.086;2023-04-04T20:50:42;102236.80;;;11.84;54.53
33265;BME280;31404;53.974;-1.086;2023-04-04T20:55:38;102239.15;;;11.09;56.11
33265;BME280;31404;53.974;-1.086;2023-04-04T21:00:39;102230.93;;;11.68;55.09
33265;BME280;31404;53.974;-1.086;2023-04-04T21:05:39;102229.96;;;11.39;55.14
33265;BME280;31404;53.974;-1.086;2023-04-04T21:15:38;102226.01;;;11.70;55.33
33265;BME280;31404;53.974;-1.086;2023-04-04T21:30:41;102216.56;;;11.69;55.44
33265;BME280;31404;53.974;-1.086;2023-04-04T21:40:37;102205.07;;;10.81;57.03
33265;BME280;31404;53.974;-1.086;2023-04-04T21:45:39;102205.41;;;11.12;56.95
33265;BME280;31404;53.974;-1.086;2023-04-04T21:50:37;102200.46;;;11.91;55.80
33265;BME280;31404;53.974;-1.086;2023-04-04T21:55:35;102211.85;;;9.42;62.68
33265;BME280;31404;53.974;-1.086;2023-04-04T22:00:38;102197.20;;;10.52;59.53
33265;BME280;31404;53.974;-1.086;2023-04-04T22:05:36;102196.37;;;11.14;59.77
33265;BME280;31404;53.974;-1.086;2023-04-04T22:10:38;102204.11;;;8.99;66.75
33265;BME280;31404;53.974;-1.086;2023-04-04T22:15:39;102192.28;;;9.64;65.23
33265;BME280;31404;53.974;-1.086;2023-04-04T22:20:37;102182.54;;;10.65;61.58
33265;BME280;31404;53.974;-1.086;2023-04-04T22:25:37;102182.22;;;9.52;66.29
33265;BME280;31404;53.974;-1.086;2023-04-04T22:30:39;102178.39;;;9.22;66.22
33265;BME280;31404;53.974;-1.086;2023-04-04T22:35:38;102170.34;;;10.71;62.76
33265;BME280;31404;53.974;-1.086;2023-04-04T22:40:34;102162.45;;;11.29;60.49
33265;BME280;31404;53.974;-1.086;2023-04-04T22:45:38;102161.37;;;11.68;59.67
33265;BME280;31404;53.974;-1.086;2023-04-04T22:50:38;102161.49;;;11.59;59.12
33265;BME280;31404;53.974;-1.086;2023-04-04T22:55:38;102151.36;;;11.51;58.43
33265;BME280;31404;53.974;-1.086;2023-04-04T23:00:37;102149.48;;;11.58;58.81
33265;BME280;31404;53.974;-1.086;2023-04-04T23:05:40;102148.67;;;12.59;56.44
33265;BME280;31404;53.974;-1.086;2023-04-04T23:10:35;102142.94;;;12.39;56.60
33265;BME280;31404;53.974;-1.086;2023-04-04T23:15:38;102135.80;;;10.93;59.36
33265;BME280;31404;53.974;-1.086;2023-04-04T23:20:40;102137.67;;;9.58;61.60
33265;BME280;31404;53.974;-1.086;2023-04-04T23:25:38;102138.25;;;10.01;60.68
33265;BME280;31404;53.974;-1.086;2023-04-04T23:30:40;102136.65;;;11.22;58.26
33265;BME280;31404;53.974;-1.086;2023-04-04T23:35:39;102134.25;;;11.22;58.99
33265;BME280;31404;53.974;-1.086;2023-04-04T23:40:38;102127.34;;;11.25;58.70
33265;BME280;31404;53.974;-1.086;2023-04-04T23:45:39;102127.35;;;10.74;59.93
33265;BME280;31404;53.974;-1.086;2023-04-04T23:50:38;102118.45;;;11.42;58.64
33265;BME280;31404;53.974;-1.086;2023-04-04T23:55:38;102119.26;;;10.66;59.46
